Time;durP1;ratioP1;P1;durP2;ratioP2;P2;SDS_P1;SDS_P2;PMS_P1;PMS_P2;Temp;Humidity;BMP_temperature;BMP_pressure;BME280_temperature;BME280_humidity;BME280_pressure;Samples;Min_cycle;Max_cycle;Signal;HPM_P1;HPM_P2
2024/03/09 00:00:40;;;;;;;16.80;8.30;;;;;;;2.62;48.34;100682.36;105465;1254;61467;-59
2024/03/09 00:03:09;;;;;;;16.80;7.70;;;;;;;2.60;48.28;100680.36;105362;1254;64431;-59
2024/03/09 00:05:39;;;;;;;21.60;9.80;;;;;;;2.58;48.31;100681.64;105507;1254;60533;-59
2024/03/09 00:08:09;;;;;;;15.20;7.60;;;;;;;2.56;48.39;100678.42;105502;1253;60550;-60
2024/03/09 00:10:38;;;;;;;17.60;8.40;;;;;;;2.53;48.39;100676.13;105586;1254;65340;-61
2024/03/09 00:13:09;;;;;;;18.00;9.10;;;;;;;2.49;48.45;100675.09;105280;1254;61344;-62
2024/03/09 00:15:41;;;;;;;13.80;7.20;;;;;;;2.48;48.65;100677.39;105454;1254;63772;-60
2024/03/09 00:18:09;;;;;;;17.00;6.60;;;;;;;2.46;48.90;100677.12;105321;1259;60526;-60
2024/03/09 00:20:37;;;;;;;18.40;7.90;;;;;;;2.43;49.05;100674.80;105310;1257;60373;-60
2024/03/09 00:23:08;;;;;;;20.20;9.20;;;;;;;2.39;49.17;100672.52;105494;1254;63695;-60
2024/03/09 00:25:37;;;;;;;18.30;7.00;;;;;;;2.37;49.19;100668.12;105460;1257;61675;-61
2024/03/09 00:28:06;;;;;;;18.50;8.60;;;;;;;2.35;49.21;100668.91;105565;1253;63942;-61
2024/03/09 00:30:35;;;;;;;15.90;7.00;;;;;;;2.32;49.28;100666.80;105595;1254;60440;-58
2024/03/09 00:33:07;;;;;;;16.80;8.50;;;;;;;2.29;49.44;100666.21;105531;1257;60431;-59
2024/03/09 00:35:36;;;;;;;16.70;7.20;;;;;;;2.26;49.57;100669.26;105511;1254;63663;-59
2024/03/09 00:38:04;;;;;;;16.60;8.10;;;;;;;2.24;49.58;100667.63;105603;1254;61374;-60
2024/03/09 00:40:33;;;;;;;19.10;7.60;;;;;;;2.22;49.61;100667.67;105649;1253;63765;-61
2024/03/09 00:43:04;;;;;;;19.20;8.00;;;;;;;2.21;49.70;100667.39;105266;1254;60526;-61
2024/03/09 00:45:32;;;;;;;15.90;6.40;;;;;;;2.18;49.75;100663.52;105722;1251;61787;-62
2024/03/09 00:48:00;;;;;;;17.80;7.70;;;;;;;2.19;49.87;100663.34;105278;1253;64982;-59
2024/03/09 00:50:27;;;;;;;17.80;7.60;;;;;;;2.20;49.96;100665.17;105183;1253;61509;-60
2024/03/09 00:52:55;;;;;;;16.80;8.50;;;;;;;2.22;49.95;100663.38;105252;1254;62753;-60
2024/03/09 00:55:24;;;;;;;19.10;8.00;;;;;;;2.22;50.17;100663.21;106895;1252;60545;-60
2024/03/09 00:57:53;;;;;;;18.70;7.90;;;;;;;2.22;50.27;100662.86;105795;1253;60445;-60
2024/03/09 01:00:23;;;;;;;20.40;8.00;;;;;;;2.23;50.26;100660.73;105856;1254;65616;-60
2024/03/09 01:02:53;;;;;;;15.10;7.10;;;;;;;2.24;50.32;100660.17;105835;1254;61454;-59
2024/03/09 01:05:22;;;;;;;19.10;8.20;;;;;;;2.25;50.36;100662.55;105281;1257;63744;-60
2024/03/09 01:07:51;;;;;;;16.90;6.80;;;;;;;2.28;50.37;100662.27;105925;1253;60626;-60
2024/03/09 01:10:20;;;;;;;20.80;8.10;;;;;;;2.31;50.49;100665.10;105911;1255;60450;-60
2024/03/09 01:12:48;;;;;;;17.30;8.00;;;;;;;2.34;50.52;100662.71;105289;1254;64927;-59
2024/03/09 01:15:16;;;;;;;17.70;7.80;;;;;;;2.37;50.59;100659.30;105197;1258;61393;-59
2024/03/09 01:17:44;;;;;;;19.00;7.80;;;;;;;2.41;50.69;100659.48;105392;1253;63730;-62
2024/03/09 01:20:12;;;;;;;16.60;7.00;;;;;;;2.44;50.62;100662.81;105394;1254;60552;-63
2024/03/09 01:22:44;;;;;;;17.20;7.90;;;;;;;2.49;50.38;100665.23;105483;1253;62046;-63
2024/03/09 01:25:13;;;;;;;20.50;8.70;;;;;;;2.52;50.16;100668.21;105378;1252;64938;-61
2024/03/09 01:27:41;;;;;;;20.50;8.30;;;;;;;2.55;49.99;100666.67;105354;1257;61983;-61
2024/03/09 01:30:09;;;;;;;15.70;7.70;;;;;;;2.62;49.86;100665.37;105262;1254;62685;-60
2024/03/09 01:32:43;;;;;;;20.00;8.70;;;;;;;2.66;49.76;100671.27;105297;1253;63074;-60
2024/03/09 01:35:12;;;;;;;31.30;8.00;;;;;;;2.68;49.81;100674.80;105491;1257;60269;-61
2024/03/09 01:37:41;;;;;;;17.20;7.00;;;;;;;2.69;49.80;100675.98;105251;1253;63650;-58
2024/03/09 01:40:10;;;;;;;21.30;8.70;;;;;;;2.68;49.70;100672.91;105440;1253;61858;-60
2024/03/09 01:42:38;;;;;;;14.60;6.60;;;;;;;2.63;49.74;100670.52;105354;1259;64267;-59
2024/03/09 01:45:07;;;;;;;15.20;7.90;;;;;;;2.53;49.82;100669.01;105489;1253;60495;-59
2024/03/09 01:47:35;;;;;;;18.20;8.90;;;;;;;2.42;50.05;100666.54;105244;1254;60473;-59
2024/03/09 01:50:03;;;;;;;17.20;7.30;;;;;;;2.36;50.11;100665.39;105412;1254;72910;-59
2024/03/09 01:52:31;;;;;;;14.80;7.40;;;;;;;2.34;50.20;100666.52;105708;1253;61867;-59
2024/03/09 01:55:04;;;;;;;15.20;6.30;;;;;;;2.31;50.25;100667.33;105233;1253;64248;-59
2024/03/09 01:57:32;;;;;;;14.60;7.30;;;;;;;2.27;50.21;100665.58;105249;1254;60585;-59
2024/03/09 02:00:01;;;;;;;15.20;6.80;;;;;;;2.24;50.18;100664.68;105240;1255;61638;-59
2024/03/09 02:02:32;;;;;;;15.10;7.00;;;;;;;2.20;50.26;100666.40;105722;1253;63689;-59
2024/03/09 02:05:10;;;;;;;19.50;6.50;;;;;;;2.15;50.35;100668.69;105756;1252;60387;-59
2024/03/09 02:07:40;;;;;;;15.10;6.90;;;;;;;2.11;50.50;100670.05;105612;1254;63809;-59
2024/03/09 02:10:11;;;;;;;18.60;6.60;;;;;;;2.07;50.60;100664.67;105373;1253;60460;-60
2024/03/09 02:12:42;;;;;;;16.50;8.40;;;;;;;2.02;50.61;100665.89;105515;1253;61047;-58
2024/03/09 02:15:16;;;;;;;20.40;9.00;;;;;;;1.99;50.69;100669.48;105363;1252;64976;-58
2024/03/09 02:17:47;;;;;;;16.50;7.90;;;;;;;1.97;50.79;100668.86;105434;1251;61450;-58
2024/03/09 02:20:17;;;;;;;25.00;8.30;;;;;;;2.00;50.75;100667.39;105257;1257;63676;-58
2024/03/09 02:22:46;;;;;;;18.10;6.80;;;;;;;2.02;50.75;100664.00;105412;1256;60878;-58
2024/03/09 02:25:16;;;;;;;18.20;6.30;;;;;;;2.02;50.69;100664.34;105276;1257;60450;-56
2024/03/09 02:27:43;;;;;;;13.00;5.60;;;;;;;2.00;50.67;100664.44;105463;1253;64920;-65
2024/03/09 02:30:12;;;;;;;14.40;6.20;;;;;;;1.95;50.93;100662.55;105317;1251;61768;-61
2024/03/09 02:32:42;;;;;;;16.00;5.70;;;;;;;1.92;50.97;100665.45;106473;1253;63666;-61
2024/03/09 02:35:10;;;;;;;24.70;8.20;;;;;;;1.89;51.02;100666.59;105187;1257;60388;-60
2024/03/09 02:37:38;;;;;;;16.90;7.20;;;;;;;1.90;50.96;100666.05;105304;1259;60452;-61
2024/03/09 02:40:11;;;;;;;17.10;8.00;;;;;;;1.89;50.94;100667.13;105594;1252;64900;-61
2024/03/09 02:43:05;;;;;;;17.00;7.10;;;;;;;1.88;50.92;100669.23;105464;1257;60377;-61
2024/03/09 02:45:30;;;;;;;19.10;6.40;;;;;;;1.87;51.01;100667.70;105574;1255;62443;-60
2024/03/09 02:47:58;;;;;;;15.10;6.40;;;;;;;1.85;50.99;100668.27;105738;1254;60508;-60
2024/03/09 02:50:26;;;;;;;13.70;7.10;;;;;;;1.84;51.11;100665.22;105859;1251;60357;-60
2024/03/09 02:52:55;;;;;;;17.80;7.10;;;;;;;1.83;51.26;100664.41;105889;1253;64941;-60
2024/03/09 02:55:23;;;;;;;17.20;6.70;;;;;;;1.82;51.39;100663.73;105834;1253;61417;-59
2024/03/09 02:57:51;;;;;;;16.20;7.30;;;;;;;1.82;51.56;100664.43;106830;1253;64162;-59
2024/03/09 03:00:23;;;;;;;15.90;6.80;;;;;;;1.80;51.63;100665.73;105255;1254;60549;-59
2024/03/09 03:05:42;;;;;;;12.60;6.20;;;;;;;1.72;51.67;100661.40;105281;1257;64927;-60
2024/03/09 03:08:11;;;;;;;15.90;7.10;;;;;;;1.67;51.77;100662.43;106220;1252;61306;-60
2024/03/09 03:10:40;;;;;;;14.70;5.60;;;;;;;1.63;51.80;100662.25;105243;1256;62456;-60
2024/03/09 03:13:08;;;;;;;12.40;4.00;;;;;;;1.63;51.68;100664.12;105254;1253;60583;-62
2024/03/09 03:15:37;;;;;;;11.10;4.80;;;;;;;1.69;51.67;100660.64;105332;1257;60431;-62
2024/03/09 03:18:08;;;;;;;17.60;7.00;;;;;;;1.75;51.59;100661.95;105442;1255;64921;-61
2024/03/09 03:20:36;;;;;;;18.20;8.10;;;;;;;1.82;51.59;100661.15;105653;1253;61512;-61
2024/03/09 03:23:04;;;;;;;18.90;9.70;;;;;;;1.90;51.54;100657.58;105334;1254;62511;-60
2024/03/09 03:25:31;;;;;;;22.80;10.00;;;;;;;1.96;51.40;100657.67;105236;1253;60606;-60
2024/03/09 03:27:59;;;;;;;17.50;8.80;;;;;;;2.05;51.32;100662.34;105368;1257;60840;-61
2024/03/09 03:30:27;;;;;;;22.80;8.60;;;;;;;2.13;51.26;100663.74;105353;1254;63640;-61
2024/03/09 03:32:54;;;;;;;21.90;10.00;;;;;;;2.17;51.08;100661.98;105707;1257;61506;-59
2024/03/09 03:35:24;;;;;;;16.90;7.40;;;;;;;2.18;50.96;100663.35;105263;1254;63770;-60
2024/03/09 03:37:58;;;;;;;13.90;7.80;;;;;;;2.17;50.85;100658.04;105953;1259;60581;-59
2024/03/09 03:40:26;;;;;;;14.80;6.30;;;;;;;2.14;50.82;100659.52;106931;1252;60367;-59
2024/03/09 03:42:54;;;;;;;13.20;5.70;;;;;;;2.11;50.89;100658.79;105935;1254;63696;-58
2024/03/09 03:45:22;;;;;;;14.30;7.70;;;;;;;2.06;50.82;100659.02;105891;1254;61376;-60
2024/03/09 03:47:49;;;;;;;17.70;7.70;;;;;;;1.96;50.92;100657.50;105319;1254;64277;-58
2024/03/09 03:50:17;;;;;;;15.00;6.40;;;;;;;1.84;51.05;100658.48;105210;1253;60453;-59
2024/03/09 03:52:45;;;;;;;18.20;5.40;;;;;;;1.75;51.24;100657.11;105374;1257;60629;-59
2024/03/09 03:55:12;;;;;;;15.60;7.20;;;;;;;1.68;51.37;100660.83;105222;1253;64887;-60
2024/03/09 03:57:42;;;;;;;16.10;5.80;;;;;;;1.61;51.61;100656.80;105404;1256;68986;-60
2024/03/09 04:00:12;;;;;;;14.80;5.70;;;;;;;1.54;51.72;100657.06;105277;1251;63882;-60
2024/03/09 04:02:41;;;;;;;12.90;6.30;;;;;;;1.47;52.02;100658.67;105698;1257;60497;-60
2024/03/09 04:05:09;;;;;;;19.40;8.10;;;;;;;1.43;52.14;100659.20;105353;1252;60668;-60
2024/03/09 04:07:36;;;;;;;15.90;6.10;;;;;;;1.37;52.31;100656.15;105387;1253;64913;-60
2024/03/09 04:10:11;;;;;;;14.20;6.70;;;;;;;1.32;52.48;100655.11;105192;1257;60499;-60
2024/03/09 04:12:40;;;;;;;13.50;6.90;;;;;;;1.28;52.64;100656.98;105350;1253;62496;-60
2024/03/09 04:15:09;;;;;;;14.20;7.00;;;;;;;1.24;52.82;100657.83;105382;1253;60543;-61
2024/03/09 04:17:38;;;;;;;17.70;8.00;;;;;;;1.22;52.83;100658.57;105238;1256;60364;-55
2024/03/09 04:20:06;;;;;;;17.50;8.70;;;;;;;1.22;52.89;100659.81;105304;1257;73929;-56
2024/03/09 04:22:34;;;;;;;17.60;9.10;;;;;;;1.21;52.90;100664.48;105661;1257;60469;-56
2024/03/09 04:25:05;;;;;;;16.90;8.90;;;;;;;1.20;52.91;100666.61;105614;1253;62558;-60
2024/03/09 04:27:32;;;;;;;19.80;7.80;;;;;;;1.21;52.85;100672.81;105348;1253;60511;-59
2024/03/09 04:30:00;;;;;;;16.50;7.30;;;;;;;1.24;52.87;100676.15;105370;1257;60458;-64
2024/03/09 04:32:27;;;;;;;18.00;7.00;;;;;;;1.28;52.97;100677.55;105764;1253;63887;-59
2024/03/09 04:34:55;;;;;;;16.60;7.50;;;;;;;1.30;52.85;100678.34;105965;1253;61312;-59
2024/03/09 04:37:25;;;;;;;11.30;6.30;;;;;;;1.32;52.80;100681.71;105237;1253;63738;-60
2024/03/09 04:39:55;;;;;;;14.00;7.00;;;;;;;1.33;52.76;100683.06;105328;1253;60449;-59
2024/03/09 04:42:24;;;;;;;13.00;6.60;;;;;;;1.32;52.83;100686.90;105854;1254;60459;-59
2024/03/09 04:44:52;;;;;;;16.80;7.50;;;;;;;1.26;52.86;100687.46;106014;1253;73813;-62
2024/03/09 04:47:20;;;;;;;16.30;5.90;;;;;;;1.21;53.06;100686.80;105811;1254;61344;-59
2024/03/09 04:49:48;;;;;;;12.90;6.00;;;;;;;1.16;53.11;100685.78;105434;1257;62452;-61
2024/03/09 04:52:16;;;;;;;14.70;6.70;;;;;;;1.13;53.23;100688.99;105361;1253;60658;-60
2024/03/09 04:54:43;;;;;;;11.40;5.20;;;;;;;1.10;53.29;100692.70;105271;1252;60454;-59
2024/03/09 04:57:17;;;;;;;13.00;5.50;;;;;;;1.11;53.38;100693.53;105233;1253;74287;-59
2024/03/09 04:59:44;;;;;;;11.50;5.90;;;;;;;1.12;53.39;100694.39;105353;1257;60512;-59
2024/03/09 05:02:12;;;;;;;17.30;6.70;;;;;;;1.14;53.48;100694.13;105144;1253;70442;-57
2024/03/09 05:04:40;;;;;;;11.30;4.80;;;;;;;1.14;53.43;100696.89;105550;1252;60549;-58
2024/03/09 05:07:09;;;;;;;11.30;5.20;;;;;;;1.17;53.31;100699.89;105190;1257;60362;-59
2024/03/09 05:09:37;;;;;;;14.00;5.00;;;;;;;1.27;53.33;100704.87;105612;1253;72662;-59
2024/03/09 05:12:05;;;;;;;17.30;4.90;;;;;;;1.38;53.19;100704.67;105475;1254;69964;-58
2024/03/09 05:14:33;;;;;;;14.60;5.50;;;;;;;1.48;53.00;100705.52;105660;1257;71232;-57
2024/03/09 05:17:00;;;;;;;11.60;4.60;;;;;;;1.60;52.90;100715.77;105201;1251;60880;-57
2024/03/09 05:19:28;;;;;;;13.40;6.50;;;;;;;1.71;52.76;100718.49;105322;1257;60583;-60
2024/03/09 05:21:56;;;;;;;12.20;5.40;;;;;;;1.85;52.67;100717.81;105251;1252;72531;-57
2024/03/09 05:24:24;;;;;;;12.00;4.60;;;;;;;1.95;52.41;100717.25;105766;1253;68841;-61
2024/03/09 05:26:52;;;;;;;14.40;6.80;;;;;;;1.99;52.22;100718.13;105855;1253;63892;-59
2024/03/09 05:29:21;;;;;;;13.60;6.60;;;;;;;2.01;52.00;100717.53;105275;1257;60576;-59
2024/03/09 05:31:49;;;;;;;14.80;5.50;;;;;;;2.03;51.89;100721.93;105906;1257;60289;-59
2024/03/09 05:34:18;;;;;;;16.50;6.10;;;;;;;2.06;51.98;100724.42;105401;1253;71975;-59
2024/03/09 05:36:46;;;;;;;17.80;6.90;;;;;;;2.12;51.95;100728.00;105172;1253;61391;-56
2024/03/09 05:39:15;;;;;;;17.70;7.90;;;;;;;2.20;51.78;100730.43;105310;1253;71387;-62
2024/03/09 05:41:43;;;;;;;18.90;7.30;;;;;;;2.28;51.60;100730.80;105315;1255;60648;-60
2024/03/09 05:44:10;;;;;;;14.90;7.00;;;;;;;2.34;51.54;100736.46;105572;1257;59205;-61
2024/03/09 05:46:38;;;;;;;14.30;6.30;;;;;;;2.37;51.41;100742.08;105201;1253;63701;-60
2024/03/09 05:49:08;;;;;;;12.40;5.70;;;;;;;2.40;51.43;100743.31;105386;1253;61850;-60
2024/03/09 05:51:35;;;;;;;18.30;8.30;;;;;;;2.45;51.35;100747.95;105245;1257;243530;-62
2024/03/09 05:55:23;;;;;;;18.90;7.90;;;;;;;2.30;51.89;100745.97;102384;1292;599665;-61
2024/03/09 05:57:52;;;;;;;13.40;6.30;;;;;;;2.66;51.01;100747.80;105177;1267;59373;-64
2024/03/09 06:00:27;;;;;;;16.90;6.20;;;;;;;2.75;50.75;100754.17;105180;1267;59270;-59
2024/03/09 06:02:57;;;;;;;16.10;8.20;;;;;;;2.81;50.57;100752.39;105000;1269;65752;-59
2024/03/09 06:05:28;;;;;;;14.90;5.70;;;;;;;2.85;50.47;100755.35;105504;1260;61761;-60
2024/03/09 06:07:57;;;;;;;17.00;8.10;;;;;;;2.90;50.34;100757.07;104695;1260;332874;-64
2024/03/09 06:10:25;;;;;;;18.40;7.80;;;;;;;2.93;50.38;100755.17;105523;1262;59362;-59
2024/03/09 06:12:54;;;;;;;15.40;8.20;;;;;;;2.99;50.14;100755.25;105514;1262;59404;-58
2024/03/09 06:15:23;;;;;;;12.00;5.30;;;;;;;3.13;49.98;100752.78;107470;1256;62632;-61
2024/03/09 06:17:53;;;;;;;20.00;7.30;;;;;;;3.27;49.83;100750.45;108952;1257;61536;-63
2024/03/09 06:20:26;;;;;;;15.40;7.00;;;;;;;3.40;49.72;100754.55;109007;1257;62517;-60
2024/03/09 06:22:55;;;;;;;17.60;8.60;;;;;;;3.52;49.55;100755.56;108943;1257;57778;-60
2024/03/09 06:25:23;;;;;;;16.50;7.30;;;;;;;3.64;49.35;100755.05;109022;1256;57846;-61
2024/03/09 06:27:53;;;;;;;14.20;8.50;;;;;;;3.74;49.15;100754.61;108996;1256;62849;-62
2024/03/09 06:30:23;;;;;;;16.30;7.70;;;;;;;3.80;48.89;100754.30;109018;1258;62421;-60
2024/03/09 06:32:59;;;;;;;15.70;7.70;;;;;;;3.85;48.92;100758.42;107137;1261;62445;-60
2024/03/09 06:35:29;;;;;;;20.50;9.60;;;;;;;3.87;48.86;100762.48;105453;1262;59755;-61
2024/03/09 06:38:00;;;;;;;25.40;7.70;;;;;;;3.90;48.90;100764.59;108994;1257;57608;-60
2024/03/09 06:40:30;;;;;;;16.10;7.50;;;;;;;3.92;48.99;100765.54;109065;1257;64068;-60
2024/03/09 06:42:59;;;;;;;16.60;7.00;;;;;;;3.97;49.11;100764.84;108960;1257;68618;-60
2024/03/09 06:45:27;;;;;;;14.20;7.60;;;;;;;4.01;48.99;100766.19;108960;1256;62636;-60
2024/03/09 06:47:57;;;;;;;16.80;8.90;;;;;;;4.05;48.97;100765.49;108915;1257;58082;-60
2024/03/09 06:50:29;;;;;;;17.10;7.40;;;;;;;4.09;48.85;100769.46;107157;1257;59587;-60
2024/03/09 06:52:58;;;;;;;18.90;7.40;;;;;;;4.12;48.90;100769.84;105535;1262;64604;-60
2024/03/09 06:55:27;;;;;;;15.70;7.00;;;;;;;4.13;48.81;100770.65;105769;1258;61360;-59
2024/03/09 06:57:56;;;;;;;14.80;7.30;;;;;;;4.15;48.78;100775.11;106485;1258;62624;-60
2024/03/09 07:00:25;;;;;;;15.70;7.60;;;;;;;4.16;48.82;100774.91;105596;1261;59648;-59
2024/03/09 07:02:53;;;;;;;22.80;7.90;;;;;;;4.15;49.05;100776.98;106356;1257;59743;-61
2024/03/09 07:05:21;;;;;;;19.30;6.60;;;;;;;4.17;49.15;100776.40;105815;1256;64190;-60
2024/03/09 07:07:49;;;;;;;16.90;6.70;;;;;;;4.20;49.15;100776.27;105085;1257;61497;-58
2024/03/09 07:10:17;;;;;;;18.00;8.70;;;;;;;4.23;49.25;100784.44;105038;1258;65764;-60
2024/03/09 07:12:45;;;;;;;15.70;6.60;;;;;;;4.30;49.12;100782.40;105126;1261;59751;-59
2024/03/09 07:15:16;;;;;;;19.70;8.40;;;;;;;4.41;49.00;100783.74;105194;1257;59657;-60
2024/03/09 07:17:56;;;;;;;18.20;7.20;;;;;;;4.53;48.88;100785.46;105300;1257;67009;-70
2024/03/09 07:20:27;;;;;;;17.30;8.40;;;;;;;4.62;48.99;100785.90;105053;1258;61543;-59
2024/03/09 07:22:56;;;;;;;11.80;5.70;;;;;;;4.70;49.00;100783.06;105705;1257;63877;-62
2024/03/09 07:25:26;;;;;;;16.30;6.70;;;;;;;4.75;48.88;100782.98;105518;1261;59729;-59
2024/03/09 07:27:56;;;;;;;18.50;9.50;;;;;;;4.81;48.81;100785.66;105684;1257;59754;-62
2024/03/09 07:30:26;;;;;;;13.00;6.00;;;;;;;4.87;48.73;100786.55;105736;1263;64781;-59
2024/03/09 07:32:54;;;;;;;16.30;7.00;;;;;;;4.92;48.67;100784.38;105656;1261;60589;-57
2024/03/09 07:35:27;;;;;;;15.90;7.50;;;;;;;4.98;48.59;100787.95;105768;1257;62642;-58
2024/03/09 07:37:59;;;;;;;18.70;5.60;;;;;;;5.01;48.66;100789.85;106557;1257;59645;-60
2024/03/09 07:40:29;;;;;;;17.90;7.90;;;;;;;5.06;48.66;100788.57;105180;1263;59589;-59
2024/03/09 07:43:00;;;;;;;14.40;6.50;;;;;;;5.12;48.76;100792.79;105160;1257;64804;-60
2024/03/09 07:45:29;;;;;;;14.30;6.10;;;;;;;5.17;48.64;100790.44;105184;1257;60236;-59
2024/03/09 07:48:03;;;;;;;14.90;7.10;;;;;;;5.23;48.45;100789.65;107378;1256;62764;-59
2024/03/09 07:50:32;;;;;;;12.70;6.80;;;;;;;5.28;48.38;100794.10;105630;1257;59566;-59
2024/03/09 07:53:00;;;;;;;18.60;12.50;;;;;;;5.31;48.23;100793.04;105192;1256;59563;-60
2024/03/09 07:55:32;;;;;;;11.50;6.20;;;;;;;5.33;48.05;100789.82;105105;1254;62878;-59
2024/03/09 07:58:01;;;;;;;17.70;6.00;;;;;;;5.38;47.93;100792.00;105213;1260;60090;-57
2024/03/09 08:00:34;;;;;;;11.30;5.90;;;;;;;5.45;47.86;100795.48;105174;1257;64157;-58
2024/03/09 08:03:02;;;;;;;13.70;5.80;;;;;;;5.51;47.66;100793.23;105253;1260;59762;-59
2024/03/09 08:05:30;;;;;;;12.70;5.90;;;;;;;5.58;47.45;100793.23;105424;1257;59691;-58
2024/03/09 08:08:02;;;;;;;18.20;6.10;;;;;;;5.63;47.03;100794.36;105187;1256;64524;-58
2024/03/09 08:10:34;;;;;;;10.30;4.70;;;;;;;5.69;46.72;100795.98;107409;1255;62176;-60
2024/03/09 08:13:02;;;;;;;14.70;5.10;;;;;;;5.75;46.63;100790.07;105216;1260;64230;-59
2024/03/09 08:15:29;;;;;;;13.00;5.40;;;;;;;5.85;46.56;100790.60;105072;1257;59682;-59
2024/03/09 08:17:57;;;;;;;13.70;6.50;;;;;;;5.95;46.41;100786.05;105006;1258;59683;-59
2024/03/09 08:20:26;;;;;;;12.10;4.20;;;;;;;6.05;46.20;100786.76;105060;1256;71786;-58
2024/03/09 08:22:54;;;;;;;16.90;7.70;;;;;;;6.19;46.06;100787.23;109030;1258;68843;-58
2024/03/09 08:25:27;;;;;;;13.70;5.50;;;;;;;6.33;45.40;100789.06;109005;1254;62416;-58
2024/03/09 08:27:55;;;;;;;11.40;6.00;;;;;;;6.49;45.35;100791.62;109097;1254;59731;-58
2024/03/09 08:30:23;;;;;;;14.10;6.00;;;;;;;6.65;45.24;100786.92;109166;1254;57485;-59
2024/03/09 08:32:54;;;;;;;13.70;4.80;;;;;;;6.79;44.92;100786.27;109032;1257;64576;-59
2024/03/09 08:35:22;;;;;;;14.30;7.20;;;;;;;6.94;44.37;100781.55;109033;1254;61405;-59
2024/03/09 08:37:52;;;;;;;11.70;5.20;;;;;;;7.08;43.99;100783.03;105899;1260;63731;-62
2024/03/09 08:40:23;;;;;;;19.50;12.10;;;;;;;7.18;43.94;100786.27;105188;1257;59583;-59
2024/03/09 08:42:51;;;;;;;14.50;5.60;;;;;;;7.28;43.90;100787.41;105806;1260;59616;-58
2024/03/09 08:45:20;;;;;;;11.20;4.90;;;;;;;7.37;43.60;100790.04;105877;1260;62988;-58
2024/03/09 08:47:50;;;;;;;13.50;5.30;;;;;;;7.44;43.42;100789.43;105924;1260;60963;-59
2024/03/09 08:50:22;;;;;;;11.70;5.10;;;;;;;7.49;43.38;100789.46;105255;1260;63734;-58
2024/03/09 08:52:50;;;;;;;13.10;4.70;;;;;;;7.55;43.15;100794.02;105203;1257;59759;-58
2024/03/09 08:55:18;;;;;;;17.30;6.70;;;;;;;7.61;43.08;100796.25;105144;1260;59579;-57
2024/03/09 08:57:48;;;;;;;18.70;12.60;;;;;;;7.62;42.65;100798.46;105427;1259;64187;-57
2024/03/09 09:00:19;;;;;;;15.50;6.80;;;;;;;7.63;42.78;100800.48;105228;1259;60088;-58
2024/03/09 09:02:48;;;;;;;16.20;7.40;;;;;;;7.63;42.76;100806.60;105354;1260;63748;-59
2024/03/09 09:05:18;;;;;;;17.40;5.40;;;;;;;7.61;42.89;100805.81;105201;1258;59643;-58
2024/03/09 09:07:46;;;;;;;18.40;7.30;;;;;;;7.63;43.06;100807.98;105240;1258;59711;-59
2024/03/09 09:10:15;;;;;;;23.40;14.00;;;;;;;7.64;43.09;100805.65;105288;1260;64052;-59
2024/03/09 09:12:44;;;;;;;17.50;6.10;;;;;;;7.66;42.73;100808.89;105349;1260;61380;-58
2024/03/09 09:15:14;;;;;;;15.60;6.30;;;;;;;7.69;43.06;100807.85;105168;1257;64053;-57
2024/03/09 09:17:42;;;;;;;16.00;6.80;;;;;;;7.71;43.26;100807.74;105294;1260;61316;-59
2024/03/09 09:20:11;;;;;;;11.20;4.70;;;;;;;7.71;43.49;100808.04;105319;1260;59663;-58
2024/03/09 09:22:46;;;;;;;10.90;5.40;;;;;;;7.75;43.79;100810.91;105268;1257;62939;-58
2024/03/09 09:25:16;;;;;;;17.80;9.90;;;;;;;7.83;43.54;100812.53;105180;1259;61431;-58
2024/03/09 09:27:44;;;;;;;9.80;5.90;;;;;;;7.90;43.19;100813.68;106141;1260;63896;-58
2024/03/09 09:30:14;;;;;;;9.80;4.20;;;;;;;7.96;42.87;100817.30;105120;1258;59751;-57
2024/03/09 09:32:43;;;;;;;11.10;5.70;;;;;;;8.00;43.00;100817.43;105363;1259;59637;-58
2024/03/09 09:35:11;;;;;;;15.90;4.40;;;;;;;8.06;43.16;100820.58;105217;1257;64579;-59
2024/03/09 09:37:40;;;;;;;15.40;9.50;;;;;;;8.12;42.98;100824.57;105295;1260;60381;-57
2024/03/09 09:40:08;;;;;;;10.00;4.20;;;;;;;8.20;42.98;100822.33;105190;1260;62441;-57
2024/03/09 09:42:36;;;;;;;10.40;3.70;;;;;;;8.27;42.73;100821.34;105381;1260;59672;-58
2024/03/09 09:45:04;;;;;;;15.10;9.80;;;;;;;8.28;42.74;100821.96;105218;1260;59732;-59
2024/03/09 09:47:33;;;;;;;8.60;3.80;;;;;;;8.31;42.51;100821.79;105569;1259;64230;-64
2024/03/09 09:50:00;;;;;;;11.60;5.10;;;;;;;8.33;42.49;100822.52;105836;1260;60253;-61
2024/03/09 09:52:29;;;;;;;8.30;3.90;;;;;;;8.35;42.28;100822.41;105139;1260;74854;-63
2024/03/09 09:54:58;;;;;;;14.50;8.10;;;;;;;8.35;42.41;100823.95;106693;1259;59641;-63
2024/03/09 09:57:26;;;;;;;9.70;3.90;;;;;;;8.38;42.38;100821.69;106132;1254;59522;-62
2024/03/09 09:59:54;;;;;;;10.40;3.70;;;;;;;8.42;42.23;100824.63;106063;1258;75182;-61
2024/03/09 10:02:22;;;;;;;14.50;7.40;;;;;;;8.44;42.11;100821.38;105403;1258;62627;-66
2024/03/09 10:04:51;;;;;;;8.90;4.00;;;;;;;8.48;42.02;100823.55;106787;1256;64133;-62
2024/03/09 10:07:19;;;;;;;8.50;3.70;;;;;;;8.56;41.58;100824.42;109238;1253;58557;-62
2024/03/09 10:09:48;;;;;;;11.20;7.50;;;;;;;8.66;41.24;100814.84;109273;1253;58365;-64
2024/03/09 10:12:22;;;;;;;9.60;4.10;;;;;;;8.77;40.83;100814.02;107108;1258;74479;-60
2024/03/09 10:14:52;;;;;;;9.20;3.00;;;;;;;8.83;40.65;100813.77;109309;1256;63834;-58
2024/03/09 10:17:20;;;;;;;14.70;8.90;;;;;;;8.89;40.78;100813.17;109245;1253;74839;-59
2024/03/09 10:19:49;;;;;;;9.40;3.70;;;;;;;8.94;40.72;100817.56;109287;1251;58546;-59
2024/03/09 10:22:16;;;;;;;15.90;8.00;;;;;;;8.97;40.43;100820.36;109300;1254;58321;-59
2024/03/09 10:24:52;;;;;;;8.10;3.30;;;;;;;9.00;40.30;100819.66;107852;1253;63673;-59
2024/03/09 10:27:28;;;;;;;7.50;3.10;;;;;;;9.01;40.27;100818.55;109329;1256;63749;-57
2024/03/09 10:30:10;;;;;;;11.20;7.00;;;;;;;9.04;40.24;100816.62;109179;1257;63909;-58
2024/03/09 10:32:42;;;;;;;7.60;3.10;;;;;;;9.10;40.19;100820.22;109326;1253;59204;-59
2024/03/09 10:35:10;;;;;;;12.30;7.60;;;;;;;9.17;40.14;100817.27;105529;1260;60517;-56
2024/03/09 10:37:40;;;;;;;10.90;4.00;;;;;;;9.25;39.96;100816.95;105430;1259;64184;-57
2024/03/09 10:40:13;;;;;;;15.40;8.90;;;;;;;9.28;40.03;100816.23;105634;1259;63660;-57
2024/03/09 10:42:45;;;;;;;11.90;3.70;;;;;;;9.36;40.13;100816.16;105392;1258;62845;-58
2024/03/09 10:45:16;;;;;;;12.60;7.30;;;;;;;9.50;40.14;100816.27;106407;1252;60520;-56
2024/03/09 10:47:52;;;;;;;12.60;7.00;;;;;;;9.63;39.72;100808.91;105442;1254;60581;-58
2024/03/09 10:50:30;;;;;;;8.40;3.30;;;;;;;9.72;39.52;100807.73;105295;1254;65430;-58
2024/03/09 10:53:10;;;;;;;13.60;7.00;;;;;;;9.79;39.50;100808.11;105578;1260;62488;-58
2024/03/09 10:56:15;;;;;;;7.00;2.80;;;;;;;9.89;39.49;100806.92;105439;1257;64091;-59
2024/03/09 10:58:43;;;;;;;13.10;7.90;;;;;;;10.07;39.47;100802.98;106353;1255;60655;-58
2024/03/09 11:01:15;;;;;;;9.60;3.90;;;;;;;10.21;39.27;100797.31;105190;1255;60558;-59
2024/03/09 11:03:49;;;;;;;11.20;7.00;;;;;;;10.34;38.80;100800.27;105439;1252;75833;-58
2024/03/09 11:06:21;;;;;;;10.70;6.70;;;;;;;10.35;37.97;100802.14;105180;1255;61921;-57
2024/03/09 11:08:51;;;;;;;6.10;2.90;;;;;;;10.26;37.89;100801.17;106160;1257;62440;-56
2024/03/09 11:11:21;;;;;;;13.40;6.70;;;;;;;10.23;38.28;100802.08;106025;1253;60616;-55
2024/03/09 11:13:48;;;;;;;7.90;3.20;;;;;;;10.31;38.41;100803.98;105560;1257;60995;-56
2024/03/09 11:16:20;;;;;;;13.30;7.10;;;;;;;10.39;38.50;100802.69;105484;1257;65269;-56
2024/03/09 11:18:55;;;;;;;12.80;3.80;;;;;;;10.48;38.26;100802.91;105266;1257;62422;-56
2024/03/09 11:21:34;;;;;;;13.50;6.90;;;;;;;10.51;38.14;100797.23;106037;1256;62655;-55
2024/03/09 11:24:07;;;;;;;13.00;7.50;;;;;;;10.55;38.14;100793.13;105683;1257;61734;-56
2024/03/09 11:26:56;;;;;;;7.00;3.30;;;;;;;10.64;38.26;100789.34;105288;1252;62217;-58
2024/03/09 11:29:29;;;;;;;10.20;6.90;;;;;;;10.76;38.30;100784.38;106096;1254;67041;-61
2024/03/09 11:31:59;;;;;;;12.90;6.90;;;;;;;10.91;37.92;100783.09;106622;1257;60518;-66